createdAt,value
2022-11-28T00:02:28.636Z,71.59
2022-11-28T00:05:00.369Z,71.30
2022-11-28T00:07:29.452Z,71.50
2022-11-28T00:09:59.811Z,72.07
2022-11-28T00:12:29.720Z,72.45
2022-11-28T00:14:58.868Z,72.08
2022-11-28T00:17:28.122Z,72.27
2022-11-28T00:19:57.234Z,72.79
2022-11-28T00:22:29.083Z,72.96
2022-11-28T00:24:58.110Z,73.20
2022-11-28T00:27:27.067Z,73.32
2022-11-28T00:29:58.069Z,73.09
2022-11-28T00:32:27.538Z,72.42
2022-11-28T00:34:56.761Z,71.44
2022-11-28T00:37:26.030Z,72.11
2022-11-28T00:39:55.144Z,73.22
2022-11-28T00:42:24.464Z,73.39
2022-11-28T00:44:59.110Z,73.56
2022-11-28T00:47:27.982Z,73.50
2022-11-28T00:49:57.860Z,73.19
2022-11-28T00:52:27.015Z,73.15
2022-11-28T00:54:56.358Z,72.86
2022-11-28T00:57:25.395Z,72.18
2022-11-28T00:59:54.567Z,72.16
2022-11-28T01:02:23.764Z,72.48
2022-11-28T01:04:52.866Z,72.70
2022-11-28T01:07:22.025Z,72.55
2022-11-28T01:09:51.097Z,72.34
2022-11-28T01:12:20.238Z,72.18
2022-11-28T01:14:49.246Z,72.13
2022-11-28T01:17:18.380Z,72.18
2022-11-28T01:19:47.659Z,72.27
2022-11-28T01:22:16.659Z,71.99
2022-11-28T01:24:45.908Z,71.98
2022-11-28T01:27:15.225Z,71.93
2022-11-28T01:29:44.282Z,72.06
2022-11-28T01:32:13.243Z,71.86
2022-11-28T01:34:42.716Z,71.60
2022-11-28T01:37:12.280Z,71.71
2022-11-28T01:39:41.448Z,71.44
2022-11-28T01:42:21.451Z,71.22
2022-11-28T01:44:50.566Z,70.90
2022-11-28T01:47:27.444Z,70.79
2022-11-28T01:49:57.693Z,70.83
2022-11-28T01:52:26.921Z,71.12
2022-11-28T01:55:04.346Z,71.43
2022-11-28T01:57:33.508Z,71.77
2022-11-28T02:00:15.680Z,71.83
2022-11-28T02:02:52.884Z,71.89
2022-11-28T02:05:24.544Z,72.00
2022-11-28T02:07:55.001Z,72.04
2022-11-28T02:11:22.174Z,72.14
2022-11-28T02:14:53.925Z,72.23
2022-11-28T02:17:47.244Z,72.22
2022-11-28T02:20:58.599Z,72.21
2022-11-28T02:24:21.226Z,72.34
2022-11-28T02:27:08.005Z,72.17
2022-11-28T02:30:17.469Z,72.34
2022-11-28T02:33:17.891Z,72.58
2022-11-28T02:36:14.182Z,72.67
2022-11-28T02:39:15.542Z,72.40
2022-11-28T02:42:06.635Z,72.68
2022-11-28T02:45:02.268Z,72.89
2022-11-28T02:48:06.282Z,72.70
2022-11-28T02:50:52.263Z,72.83
2022-11-28T02:53:27.670Z,72.88
2022-11-28T02:55:58.600Z,73.16
2022-11-28T02:58:28.008Z,73.12
2022-11-28T03:00:59.016Z,73.13
2022-11-28T03:04:10.124Z,73.00
2022-11-28T03:06:44.784Z,73.12
2022-11-28T03:09:46.460Z,73.20
2022-11-28T03:13:03.200Z,73.26
2022-11-28T03:16:20.950Z,73.31
2022-11-28T03:19:23.657Z,73.35
2022-11-28T03:22:10.602Z,73.02
2022-11-28T03:24:52.577Z,72.89
2022-11-28T03:27:43.286Z,73.02
2022-11-28T03:30:48.927Z,72.92
2022-11-28T03:33:19.835Z,72.79
2022-11-28T03:35:56.303Z,72.63
2022-11-28T03:38:37.129Z,72.69
2022-11-28T03:41:25.555Z,72.77
2022-11-28T03:43:59.182Z,72.61
2022-11-28T03:46:38.833Z,72.22
2022-11-28T03:49:11.652Z,72.31
2022-11-28T03:52:00.642Z,72.36
2022-11-28T03:54:37.467Z,72.22
2022-11-28T03:57:46.097Z,72.08
2022-11-28T04:00:16.389Z,71.81
2022-11-28T04:03:13.124Z,71.92
2022-11-28T04:06:28.422Z,71.81
2022-11-28T04:09:10.187Z,71.79
2022-11-28T04:11:56.886Z,71.63
2022-11-28T04:14:53.021Z,71.44
2022-11-28T04:17:43.129Z,71.32
2022-11-28T04:20:43.071Z,71.13
2022-11-28T04:23:18.758Z,71.00
2022-11-28T04:26:02.888Z,71.03
2022-11-28T04:28:36.207Z,70.68
2022-11-28T04:31:09.038Z,70.87
2022-11-28T04:33:44.624Z,70.63
2022-11-28T04:36:16.278Z,70.41
2022-11-28T04:38:57.221Z,70.31
2022-11-28T04:41:37.427Z,70.33
2022-11-28T04:44:39.668Z,70.16
2022-11-28T04:47:09.636Z,70.19
2022-11-28T04:49:39.429Z,70.42
2022-11-28T04:52:32.880Z,70.49
2022-11-28T04:55:52.249Z,70.60
2022-11-28T04:58:47.885Z,70.67
2022-11-28T05:01:28.187Z,70.65
2022-11-28T05:03:58.151Z,70.82
2022-11-28T05:06:34.564Z,70.74
2022-11-28T05:09:05.056Z,70.75
2022-11-28T05:11:34.446Z,70.86
2022-11-28T05:14:03.907Z,70.75
2022-11-28T05:16:33.920Z,70.86
2022-11-28T05:19:03.226Z,71.32
2022-11-28T05:21:32.175Z,71.69
2022-11-28T05:24:01.579Z,72.05
2022-11-28T05:26:33.563Z,72.27
2022-11-28T05:29:03.336Z,72.34
2022-11-28T05:31:33.081Z,72.34
2022-11-28T05:34:02.332Z,72.33
2022-11-28T05:36:31.277Z,72.51
2022-11-28T05:39:00.329Z,72.45
2022-11-28T05:41:34.595Z,72.60
2022-11-28T05:44:04.542Z,72.50
2022-11-28T05:46:33.863Z,72.50
2022-11-28T05:49:03.076Z,72.51
2022-11-28T05:51:32.343Z,72.71
2022-11-28T05:54:01.364Z,72.63
2022-11-28T05:56:30.535Z,72.65
2022-11-28T05:58:59.983Z,72.83
2022-11-28T06:01:31.177Z,72.77
2022-11-28T06:04:02.188Z,72.71
2022-11-28T06:06:35.840Z,72.93
2022-11-28T06:09:07.115Z,73.00
2022-11-28T06:11:37.082Z,73.04
2022-11-28T06:14:06.086Z,72.80
2022-11-28T06:16:35.306Z,72.60
2022-11-28T06:19:10.125Z,72.55
2022-11-28T06:21:39.503Z,72.31
2022-11-28T06:24:11.001Z,72.49
2022-11-28T06:26:41.016Z,72.43
2022-11-28T06:29:10.227Z,72.28
2022-11-28T06:31:39.286Z,72.27
2022-11-28T06:34:08.599Z,72.22
2022-11-28T06:36:37.698Z,72.50
2022-11-28T06:39:07.304Z,72.34
2022-11-28T06:41:36.389Z,72.38
2022-11-28T06:44:05.859Z,72.65
2022-11-28T06:46:34.927Z,72.85
2022-11-28T06:49:04.066Z,72.79
2022-11-28T06:51:33.052Z,72.64
2022-11-28T06:54:02.053Z,72.71
2022-11-28T06:56:31.158Z,72.84
2022-11-28T06:59:01.829Z,72.71
2022-11-28T07:01:35.218Z,72.82
2022-11-28T07:04:04.424Z,72.62
2022-11-28T07:06:33.612Z,72.36
2022-11-28T07:09:03.107Z,72.19
2022-11-28T07:11:34.261Z,72.06
2022-11-28T07:14:05.728Z,72.23
2022-11-28T07:16:36.299Z,72.21
2022-11-28T07:19:06.285Z,72.32
2022-11-28T07:21:35.508Z,72.23
2022-11-28T07:24:05.069Z,72.04
2022-11-28T07:26:34.773Z,72.22
2022-11-28T07:29:07.284Z,72.28
2022-11-28T07:31:36.600Z,72.44
2022-11-28T07:34:05.836Z,72.77
2022-11-28T07:36:35.375Z,72.70
2022-11-28T07:39:09.426Z,72.76
2022-11-28T07:41:38.722Z,72.86
2022-11-28T07:44:07.861Z,72.95
2022-11-28T07:46:37.810Z,72.93
2022-11-28T07:49:07.172Z,72.99
2022-11-28T07:51:36.799Z,72.92
2022-11-28T07:54:07.443Z,72.68
2022-11-28T07:57:10.919Z,72.67
2022-11-28T07:59:29.352Z,72.64
2022-11-28T08:01:58.670Z,72.61
2022-11-28T08:04:27.748Z,72.65
2022-11-28T08:06:58.149Z,72.50
2022-11-28T08:09:27.294Z,72.31
2022-11-28T08:11:56.541Z,72.00
2022-11-28T08:14:25.909Z,72.02
2022-11-28T08:16:55.087Z,72.12
2022-11-28T08:19:24.845Z,72.36
2022-11-28T08:21:54.231Z,71.99
2022-11-28T08:24:23.913Z,72.07
2022-11-28T08:26:53.068Z,72.00
2022-11-28T08:29:22.215Z,72.02
2022-11-28T08:31:51.169Z,71.78
2022-11-28T08:34:20.138Z,71.90
2022-11-28T08:36:50.222Z,71.89
2022-11-28T08:39:24.550Z,71.65
2022-11-28T08:41:58.205Z,71.79
2022-11-28T08:44:30.802Z,71.83
2022-11-28T08:47:00.117Z,71.90
2022-11-28T08:49:29.157Z,72.12
2022-11-28T08:51:58.299Z,71.86
2022-11-28T08:54:27.224Z,71.89
2022-11-28T08:56:56.283Z,71.65
2022-11-28T08:59:25.692Z,71.70
2022-11-28T09:01:55.541Z,71.77
2022-11-28T09:04:25.300Z,71.82
2022-11-28T09:06:54.710Z,71.76
2022-11-28T09:09:24.020Z,71.71
2022-11-28T09:11:53.302Z,71.73
2022-11-28T09:14:22.445Z,71.75
2022-11-28T09:16:51.660Z,71.85
2022-11-28T09:19:20.814Z,71.78
2022-11-28T09:21:54.601Z,71.79
2022-11-28T09:24:26.853Z,71.90
2022-11-28T09:26:56.295Z,71.88
2022-11-28T09:29:25.358Z,71.97
2022-11-28T09:31:54.530Z,72.03
2022-11-28T09:34:23.623Z,71.75
2022-11-28T09:36:52.740Z,71.57
2022-11-28T09:39:21.801Z,71.54
2022-11-28T09:41:59.944Z,71.44
2022-11-28T09:44:49.175Z,71.55
2022-11-28T09:47:33.285Z,71.49
2022-11-28T09:50:20.327Z,71.52
2022-11-28T09:53:03.384Z,71.50
2022-11-28T09:56:20.427Z,71.26
2022-11-28T09:59:06.485Z,71.53
2022-11-28T10:02:32.854Z,71.62
2022-11-28T10:06:01.617Z,71.71
2022-11-28T10:09:01.754Z,71.68
2022-11-28T10:11:39.357Z,71.45
2022-11-28T10:14:29.426Z,71.46
2022-11-28T10:17:22.083Z,71.10
2022-11-28T10:20:03.681Z,71.40
2022-11-28T10:22:55.624Z,71.42
2022-11-28T10:25:57.713Z,71.36
2022-11-28T10:28:40.019Z,71.10
2022-11-28T10:31:14.648Z,71.04
2022-11-28T10:34:18.340Z,70.55
2022-11-28T10:37:03.462Z,71.57
2022-11-28T10:39:32.613Z,70.85
2022-11-28T10:42:47.622Z,70.33
2022-11-28T10:45:39.532Z,70.46
2022-11-28T10:48:38.586Z,70.23
2022-11-28T10:51:21.417Z,70.81
2022-11-28T10:54:20.035Z,70.60
2022-11-28T10:57:28.360Z,70.88
2022-11-28T11:00:24.277Z,70.86
2022-11-28T11:03:00.740Z,70.93
2022-11-28T11:05:37.258Z,70.97
2022-11-28T11:08:27.235Z,70.69
2022-11-28T11:11:12.951Z,70.88
2022-11-28T11:14:34.793Z,70.49
2022-11-28T11:17:03.965Z,70.19
2022-11-28T11:19:39.424Z,70.01
2022-11-28T11:22:27.158Z,69.95
2022-11-28T11:25:18.132Z,70.02
2022-11-28T11:27:59.116Z,70.10
2022-11-28T11:30:44.925Z,70.24
2022-11-28T11:33:19.415Z,70.44
2022-11-28T11:35:51.487Z,70.21
2022-11-28T11:38:23.527Z,70.20
2022-11-28T11:40:53.742Z,70.20
2022-11-28T11:43:37.438Z,70.49
2022-11-28T11:46:20.077Z,70.38
2022-11-28T11:48:54.360Z,70.17
2022-11-28T11:51:36.638Z,70.59
2022-11-28T11:54:21.582Z,70.17
2022-11-28T11:57:05.794Z,70.07
2022-11-28T11:59:50.390Z,70.03
2022-11-28T12:03:00.072Z,70.10
2022-11-28T12:06:12.638Z,69.75
2022-11-28T12:08:45.496Z,69.86
2022-11-28T12:11:25.975Z,69.87
2022-11-28T12:13:55.758Z,69.74
2022-11-28T12:17:25.585Z,69.87
2022-11-28T12:20:28.382Z,69.32
2022-11-28T12:23:00.344Z,69.07
2022-11-28T12:25:40.894Z,69.04
2022-11-28T12:28:50.680Z,68.88
2022-11-28T12:31:56.640Z,69.02
2022-11-28T12:35:01.934Z,69.05
2022-11-28T12:38:10.720Z,69.14
2022-11-28T12:41:07.862Z,69.53
2022-11-28T12:44:04.371Z,68.86
2022-11-28T12:46:48.902Z,69.20
2022-11-28T12:49:59.460Z,69.09
2022-11-28T12:53:24.649Z,68.91
2022-11-28T12:55:53.605Z,68.89
2022-11-28T12:58:38.194Z,69.12
2022-11-28T13:01:58.813Z,69.54
2022-11-28T13:05:08.689Z,69.58
2022-11-28T13:08:44.859Z,69.27
2022-11-28T13:12:04.972Z,69.76
2022-11-28T13:14:57.867Z,69.40
2022-11-28T13:18:02.300Z,69.61
2022-11-28T13:20:44.208Z,69.43
2022-11-28T13:23:23.553Z,68.82
2022-11-28T13:26:10.290Z,68.74
2022-11-28T13:29:06.678Z,68.39
2022-11-28T13:32:02.103Z,68.73
2022-11-28T13:34:33.219Z,68.65
2022-11-28T13:40:41.296Z,68.73
2022-11-28T13:43:40.724Z,68.79
2022-11-28T13:46:14.369Z,69.12
2022-11-28T13:51:35.603Z,68.50
2022-11-28T13:54:22.367Z,68.45
2022-11-28T13:57:31.820Z,68.51
2022-11-28T14:00:25.413Z,68.75
2022-11-28T14:03:00.248Z,68.27
2022-11-28T14:05:41.911Z,68.15
2022-11-28T14:08:46.048Z,68.36
2022-11-28T14:11:38.832Z,68.67
2022-11-28T14:14:14.478Z,68.56
2022-11-28T14:17:18.014Z,68.45
2022-11-28T14:20:13.028Z,68.31
2022-11-28T14:22:54.654Z,68.39
2022-11-28T14:25:43.427Z,68.36
2022-11-28T14:28:44.243Z,67.91
2022-11-28T14:31:34.093Z,67.95
2022-11-28T14:34:44.200Z,67.55
2022-11-28T14:37:28.565Z,67.11
2022-11-28T14:39:59.502Z,67.54
2022-11-28T14:42:58.776Z,67.67
2022-11-28T14:45:42.359Z,67.87
2022-11-28T14:48:31.803Z,67.94
2022-11-28T14:51:02.445Z,67.33
2022-11-28T14:53:47.177Z,67.91
2022-11-28T14:56:30.172Z,68.10
2022-11-28T14:59:04.881Z,68.26
2022-11-28T15:02:16.604Z,68.12
2022-11-28T15:04:49.470Z,67.87
2022-11-28T15:07:41.680Z,67.97
2022-11-28T15:10:24.879Z,67.85
2022-11-28T15:12:53.910Z,67.94
2022-11-28T15:15:23.861Z,67.76
2022-11-28T15:17:56.903Z,67.52
2022-11-28T15:20:43.640Z,67.30
2022-11-28T15:23:33.265Z,67.57
2022-11-28T15:26:04.777Z,67.30
2022-11-28T15:28:37.583Z,67.42
2022-11-28T15:31:07.229Z,67.27
2022-11-28T15:33:36.585Z,67.41
2022-11-28T15:36:27.711Z,67.62
2022-11-28T15:38:58.835Z,67.45
2022-11-28T15:41:29.929Z,67.21
2022-11-28T15:43:59.443Z,67.05
2022-11-28T15:46:35.675Z,67.53
2022-11-28T15:49:08.250Z,68.11
2022-11-28T15:51:37.404Z,68.05
2022-11-28T15:54:43.660Z,67.68
2022-11-28T15:57:27.123Z,67.41
2022-11-28T15:59:58.155Z,67.57
2022-11-28T16:02:38.029Z,67.69
2022-11-28T16:05:24.666Z,67.42
2022-11-28T16:07:54.119Z,66.91
2022-11-28T16:10:30.451Z,66.57
2022-11-28T16:13:23.027Z,66.89
2022-11-28T16:15:55.245Z,67.33
2022-11-28T16:18:27.267Z,67.36
2022-11-28T16:20:59.631Z,67.34
2022-11-28T16:23:37.019Z,67.67
2022-11-28T16:26:36.573Z,67.65
2022-11-28T16:29:16.265Z,67.74
2022-11-28T16:31:51.589Z,67.91
2022-11-28T16:34:49.388Z,68.09
2022-11-28T16:37:28.979Z,67.74
2022-11-28T16:40:23.717Z,67.38
2022-11-28T16:42:58.011Z,67.51
2022-11-28T16:45:35.090Z,67.35
2022-11-28T16:48:09.765Z,67.19
2022-11-28T16:50:39.683Z,67.18
2022-11-28T16:53:29.764Z,67.40
2022-11-28T16:55:59.102Z,67.58
2022-11-28T16:58:28.121Z,67.58
2022-11-28T17:01:03.776Z,67.53
2022-11-28T17:03:52.492Z,67.42
2022-11-28T17:06:38.990Z,67.47
2022-11-28T17:09:14.178Z,67.64
2022-11-28T17:11:57.368Z,67.60
2022-11-28T17:14:26.606Z,67.55
2022-11-28T17:16:55.915Z,67.69
2022-11-28T17:19:25.169Z,67.61
2022-11-28T17:21:59.036Z,67.42
2022-11-28T17:24:35.053Z,67.19
2022-11-28T17:27:08.942Z,67.54
2022-11-28T17:29:38.122Z,67.50
2022-11-28T17:32:08.539Z,67.57
2022-11-28T17:34:37.975Z,67.37
2022-11-28T17:37:07.414Z,67.38
2022-11-28T17:39:36.562Z,67.44
2022-11-28T17:42:07.004Z,67.36
2022-11-28T17:44:40.466Z,67.02
2022-11-28T17:47:09.457Z,67.22
2022-11-28T17:49:43.112Z,67.14
2022-11-28T17:52:15.198Z,67.15
2022-11-28T17:54:44.204Z,66.98
2022-11-28T17:57:13.160Z,66.86
2022-11-28T17:59:42.739Z,67.01
2022-11-28T18:02:13.159Z,67.01
2022-11-28T18:04:43.010Z,66.95
2022-11-28T18:07:12.961Z,67.05
2022-11-28T18:09:42.357Z,67.27
2022-11-28T18:12:12.308Z,66.77
2022-11-28T18:14:41.497Z,66.84
2022-11-28T18:17:10.941Z,66.60
2022-11-28T18:19:40.286Z,66.56
2022-11-28T18:22:09.850Z,66.70
2022-11-28T18:24:38.817Z,66.47
2022-11-28T18:27:08.464Z,66.44
2022-11-28T18:29:37.513Z,66.55
2022-11-28T18:32:08.623Z,66.62
2022-11-28T18:34:37.921Z,66.62
2022-11-28T18:37:06.971Z,66.45
2022-11-28T18:39:36.245Z,66.53
2022-11-28T18:42:06.031Z,66.30
2022-11-28T18:44:35.200Z,66.28
2022-11-28T18:47:05.021Z,66.46
2022-11-28T18:49:33.954Z,66.34
2022-11-28T18:52:03.312Z,66.34
2022-11-28T18:54:34.156Z,66.31
2022-11-28T18:57:03.285Z,66.13
2022-11-28T18:59:32.474Z,66.06
2022-11-28T19:02:01.975Z,65.96
2022-11-28T19:04:31.347Z,65.73
2022-11-28T19:07:01.600Z,65.34
2022-11-28T19:09:30.734Z,64.85
2022-11-28T19:12:09.565Z,65.14
2022-11-28T19:14:39.557Z,65.35
2022-11-28T19:17:13.145Z,64.95
2022-11-28T19:19:45.084Z,64.64
2022-11-28T19:22:14.235Z,64.64
2022-11-28T19:24:43.702Z,64.78
2022-11-28T19:27:14.663Z,64.75
2022-11-28T19:29:44.420Z,64.60
2022-11-28T19:32:13.806Z,64.71
2022-11-28T19:34:42.939Z,64.67
2022-11-28T19:37:12.070Z,63.98
2022-11-28T19:39:41.575Z,64.07
2022-11-28T19:42:10.780Z,63.60
2022-11-28T19:44:39.797Z,63.93
2022-11-28T19:47:09.961Z,63.76
2022-11-28T19:49:39.337Z,64.14
2022-11-28T19:52:08.403Z,64.41
2022-11-28T19:54:38.261Z,63.66
2022-11-28T19:57:11.464Z,63.57
2022-11-28T19:59:40.933Z,63.69
2022-11-28T20:02:11.500Z,63.70
2022-11-28T20:04:43.964Z,63.10
2022-11-28T20:07:13.142Z,62.60
2022-11-28T20:09:44.909Z,62.70
2022-11-28T20:12:23.642Z,62.39
2022-11-28T20:14:52.679Z,62.54
2022-11-28T20:17:22.992Z,63.40
2022-11-28T20:19:52.564Z,63.70
2022-11-28T20:22:23.971Z,63.71
2022-11-28T20:24:53.629Z,63.58
2022-11-28T20:27:22.810Z,63.52
2022-11-28T20:29:52.237Z,63.50
2022-11-28T20:32:21.278Z,63.38
2022-11-28T20:34:50.382Z,63.84
2022-11-28T20:37:19.669Z,64.01
2022-11-28T20:39:49.252Z,63.67
2022-11-28T20:42:18.486Z,63.85
2022-11-28T20:44:47.724Z,63.65
2022-11-28T20:47:16.774Z,63.18
2022-11-28T20:49:46.362Z,62.78
2022-11-28T20:52:15.519Z,62.60
2022-11-28T20:54:44.815Z,62.33
2022-11-28T20:57:21.412Z,62.16
2022-11-28T20:59:51.524Z,62.32
2022-11-28T21:02:29.497Z,62.17
2022-11-28T21:04:58.804Z,61.77
2022-11-28T21:07:28.149Z,61.22
2022-11-28T21:10:01.915Z,60.93
2022-11-28T21:12:31.050Z,60.50
2022-11-28T21:15:00.113Z,60.96
2022-11-28T21:17:29.313Z,61.03
2022-11-28T21:19:58.409Z,60.67
2022-11-28T21:22:28.445Z,60.47
2022-11-28T21:24:57.612Z,60.38
2022-11-28T21:27:27.221Z,60.80
2022-11-28T21:29:56.494Z,61.15
2022-11-28T21:32:25.927Z,61.03
2022-11-28T21:34:56.456Z,61.12
2022-11-28T21:37:28.590Z,61.37
2022-11-28T21:39:57.872Z,61.51
2022-11-28T21:42:26.809Z,61.44
2022-11-28T21:44:55.891Z,61.36
2022-11-28T21:47:24.976Z,61.22
2022-11-28T21:49:54.745Z,61.13
2022-11-28T21:52:25.376Z,60.88
2022-11-28T21:54:54.574Z,60.57
2022-11-28T21:57:23.484Z,60.53
2022-11-28T21:59:52.478Z,60.58
2022-11-28T22:02:24.971Z,60.62
2022-11-28T22:04:57.978Z,60.52
2022-11-28T22:07:27.113Z,60.65
2022-11-28T22:09:56.107Z,61.21
2022-11-28T22:12:25.188Z,61.37
2022-11-28T22:14:54.283Z,61.30
2022-11-28T22:17:23.682Z,61.37
2022-11-28T22:19:52.891Z,61.53
2022-11-28T22:22:23.370Z,61.59
2022-11-28T22:24:52.358Z,61.68
2022-11-28T22:27:21.811Z,61.84
2022-11-28T22:29:51.041Z,61.82
2022-11-28T22:32:20.205Z,61.99
2022-11-28T22:34:49.362Z,62.02
2022-11-28T22:37:18.415Z,62.07
2022-11-28T22:39:47.607Z,62.09
2022-11-28T22:42:16.844Z,62.23
2022-11-28T22:44:46.292Z,62.38
2022-11-28T22:47:15.697Z,62.50
2022-11-28T22:49:44.979Z,62.86
2022-11-28T22:52:14.139Z,63.07
2022-11-28T22:54:43.520Z,62.84
2022-11-28T22:57:12.844Z,62.67
2022-11-28T22:59:41.977Z,62.84
2022-11-28T23:02:11.137Z,62.84
2022-11-28T23:04:40.597Z,62.69
2022-11-28T23:07:09.713Z,62.70
2022-11-28T23:09:39.075Z,62.83
2022-11-28T23:12:08.897Z,62.97
2022-11-28T23:14:38.251Z,63.01
2022-11-28T23:17:07.706Z,63.24
2022-11-28T23:19:37.018Z,63.10
2022-11-28T23:22:06.095Z,63.13
2022-11-28T23:24:38.302Z,63.25
2022-11-28T23:27:07.389Z,63.25
2022-11-28T23:29:36.509Z,63.30
2022-11-28T23:32:06.107Z,63.74
2022-11-28T23:34:35.457Z,63.59
2022-11-28T23:37:04.459Z,63.40
2022-11-28T23:39:33.655Z,63.63
2022-11-28T23:42:02.715Z,63.53
2022-11-28T23:44:31.927Z,63.65
2022-11-28T23:47:01.392Z,63.64
2022-11-28T23:49:30.509Z,63.81
2022-11-28T23:51:59.884Z,63.66
2022-11-28T23:54:29.971Z,63.91
2022-11-28T23:56:59.315Z,63.88
2022-11-28T23:59:29.304Z,64.01
